createdAt,value
2018-12-24T00:01:17.144Z,-12.40
2018-12-24T00:03:43.376Z,-12.41
2018-12-24T00:06:09.406Z,-12.42
2018-12-24T00:08:35.795Z,-12.44
2018-12-24T00:11:01.829Z,-12.45
2018-12-24T00:13:27.896Z,-12.49
2018-12-24T00:15:54.052Z,-12.56
2018-12-24T00:18:20.193Z,-12.57
2018-12-24T00:20:46.247Z,-12.53
2018-12-24T00:23:12.512Z,-12.49
2018-12-24T00:25:38.561Z,-12.48
2018-12-24T00:28:04.621Z,-12.44
2018-12-24T00:30:30.801Z,-12.40
2018-12-24T00:32:56.859Z,-12.34
2018-12-24T00:35:22.895Z,-12.28
2018-12-24T00:37:49.171Z,-12.23
2018-12-24T00:40:15.155Z,-12.18
2018-12-24T00:42:41.182Z,-12.14
2018-12-24T00:45:07.577Z,-12.08
2018-12-24T00:47:33.932Z,-12.04
2018-12-24T00:49:59.974Z,-12.01
2018-12-24T00:52:26.244Z,-11.96
2018-12-24T00:54:52.323Z,-11.92
2018-12-24T00:57:18.344Z,-11.89
2018-12-24T00:59:44.750Z,-11.84
2018-12-24T01:02:10.810Z,-11.80
2018-12-24T01:04:36.857Z,-11.76
2018-12-24T01:07:03.459Z,-11.72
2018-12-24T01:09:29.506Z,-11.67
2018-12-24T01:11:55.538Z,-11.65
2018-12-24T01:14:21.856Z,-11.62
2018-12-24T01:16:47.875Z,-11.64
2018-12-24T01:19:14.023Z,-11.63
2018-12-24T01:21:40.380Z,-11.61
2018-12-24T01:24:06.446Z,-11.56
2018-12-24T01:26:32.491Z,-11.52
2018-12-24T01:28:58.774Z,-11.47
2018-12-24T01:31:24.821Z,-11.43
2018-12-24T01:33:50.838Z,-11.39
2018-12-24T01:36:17.067Z,-11.35
2018-12-24T01:38:43.082Z,-11.28
2018-12-24T01:41:09.223Z,-11.24
2018-12-24T01:43:35.480Z,-11.21
2018-12-24T01:46:01.591Z,-11.18
2018-12-24T01:48:27.615Z,-11.16
2018-12-24T01:50:54.310Z,-11.15
2018-12-24T01:53:20.527Z,-11.13
2018-12-24T01:55:46.537Z,-11.09
2018-12-24T01:58:12.728Z,-11.06
2018-12-24T02:00:38.790Z,-11.01
2018-12-24T02:03:04.847Z,-10.99
2018-12-24T02:05:31.057Z,-10.94
2018-12-24T02:07:57.099Z,-10.89
2018-12-24T02:10:23.153Z,-10.84
2018-12-24T02:12:49.646Z,-10.81
2018-12-24T02:15:15.787Z,-10.78
2018-12-24T02:18:31.331Z,-10.68
2018-12-24T02:20:57.218Z,-11.00
2018-12-24T02:23:23.130Z,-10.63
2018-12-24T02:25:49.222Z,-10.60
2018-12-24T02:28:15.322Z,-10.54
2018-12-24T02:30:41.233Z,-10.49
2018-12-24T02:33:07.309Z,-10.45
2018-12-24T02:35:33.324Z,-10.40
2018-12-24T02:37:59.242Z,-10.37
2018-12-24T02:40:25.446Z,-10.33
2018-12-24T02:42:52.470Z,-10.28
2018-12-24T02:45:18.787Z,-10.24
2018-12-24T02:47:44.927Z,-10.20
2018-12-24T02:50:11.059Z,-10.16
2018-12-24T02:52:37.069Z,-10.14
2018-12-24T02:55:03.422Z,-10.10
2018-12-24T02:57:29.343Z,-10.07
2018-12-24T02:59:55.280Z,-10.02
2018-12-24T03:02:21.436Z,-9.98
2018-12-24T03:04:47.470Z,-9.94
2018-12-24T03:07:13.505Z,-9.90
2018-12-24T03:09:39.552Z,-9.87
2018-12-24T03:12:05.515Z,-9.86
2018-12-24T03:14:31.400Z,-9.85
2018-12-24T03:16:57.511Z,-9.83
2018-12-24T03:19:23.553Z,-9.80
2018-12-24T03:21:49.464Z,-9.79
2018-12-24T03:24:15.633Z,-9.75
2018-12-24T03:26:41.554Z,-9.70
2018-12-24T03:29:07.493Z,-9.65
2018-12-24T03:31:33.714Z,-9.61
2018-12-24T03:33:59.616Z,-9.58
2018-12-24T03:36:25.619Z,-9.56
2018-12-24T03:38:51.787Z,-9.53
2018-12-24T03:41:17.887Z,-9.51
2018-12-24T03:43:43.842Z,-9.47
2018-12-24T03:46:09.936Z,-9.45
2018-12-24T03:48:36.305Z,-9.42
2018-12-24T03:51:02.433Z,-9.37
2018-12-24T03:53:28.697Z,-9.38
2018-12-24T03:55:54.626Z,-9.38
2018-12-24T03:58:20.576Z,-9.36
2018-12-24T04:00:47.360Z,-9.33
2018-12-24T04:03:13.272Z,-9.31
2018-12-24T04:05:39.189Z,-9.28
2018-12-24T04:08:05.296Z,-9.25
2018-12-24T04:10:31.314Z,-9.23
2018-12-24T04:12:57.226Z,-9.21
2018-12-24T04:15:23.310Z,-9.22
2018-12-24T04:17:49.202Z,-9.19
2018-12-24T04:20:15.104Z,-9.18
2018-12-24T04:22:41.219Z,-9.16
2018-12-24T04:25:07.236Z,-9.15
2018-12-24T04:27:41.414Z,-9.13
2018-12-24T04:30:01.193Z,-9.12
2018-12-24T04:32:27.118Z,-9.09
2018-12-24T04:34:53.023Z,-9.09
2018-12-24T04:37:19.232Z,-9.06
2018-12-24T04:39:45.224Z,-9.02
2018-12-24T04:42:11.148Z,-9.00
2018-12-24T04:44:37.241Z,-8.98
2018-12-24T04:47:03.376Z,-8.95
2018-12-24T04:49:29.279Z,-8.93
2018-12-24T04:51:55.339Z,-8.92
2018-12-24T04:54:21.870Z,-8.90
2018-12-24T04:56:47.889Z,-8.88
2018-12-24T04:59:13.989Z,-8.86
2018-12-24T05:01:39.923Z,-8.83
2018-12-24T05:04:05.822Z,-8.80
2018-12-24T05:06:31.971Z,-8.76
2018-12-24T05:08:57.994Z,-8.73
2018-12-24T05:11:23.912Z,-8.71
2018-12-24T05:13:50.072Z,-8.66
2018-12-24T05:16:16.014Z,-8.63
2018-12-24T05:18:41.924Z,-8.60
2018-12-24T05:21:08.042Z,-8.57
2018-12-24T05:23:34.047Z,-8.55
2018-12-24T05:25:59.971Z,-8.53
2018-12-24T05:28:26.121Z,-8.50
2018-12-24T05:30:52.107Z,-8.49
2018-12-24T05:33:18.050Z,-8.46
2018-12-24T05:35:44.140Z,-8.44
2018-12-24T05:38:10.053Z,-8.40
2018-12-24T05:40:35.975Z,-8.37
2018-12-24T05:43:01.997Z,-8.34
2018-12-24T05:45:27.946Z,-8.31
2018-12-24T05:47:53.853Z,-8.29
2018-12-24T05:50:20.004Z,-8.28
2018-12-24T05:52:46.060Z,-8.24
2018-12-24T05:55:11.944Z,-8.21
2018-12-24T05:57:38.046Z,-8.18
2018-12-24T06:00:04.420Z,-8.19
2018-12-24T06:02:30.436Z,-8.11
2018-12-24T06:04:56.581Z,-8.07
2018-12-24T06:07:22.513Z,-8.03
2018-12-24T06:09:48.416Z,-8.02
2018-12-24T06:12:14.538Z,-7.99
2018-12-24T06:14:40.557Z,-7.96
2018-12-24T06:17:06.662Z,-7.93
2018-12-24T06:19:33.040Z,-7.89
2018-12-24T06:21:58.980Z,-7.86
2018-12-24T06:24:24.921Z,-8.09
2018-12-24T06:26:51.308Z,-7.78
2018-12-24T06:29:17.220Z,-7.75
2018-12-24T06:31:43.146Z,-7.72
2018-12-24T06:34:09.306Z,-7.69
2018-12-24T06:36:35.218Z,-7.66
2018-12-24T06:39:01.147Z,-7.62
2018-12-24T06:41:27.126Z,-7.59
2018-12-24T06:43:53.054Z,-7.56
2018-12-24T06:46:18.958Z,-7.55
2018-12-24T06:48:45.127Z,-7.51
2018-12-24T06:51:11.093Z,-7.48
2018-12-24T06:53:37.017Z,-7.46
2018-12-24T06:56:03.072Z,-7.44
2018-12-24T06:58:30.048Z,-7.43
2018-12-24T07:00:55.987Z,-7.41
2018-12-24T07:03:22.126Z,-7.39
2018-12-24T07:05:48.165Z,-7.36
2018-12-24T07:08:14.090Z,-7.32
2018-12-24T07:10:40.160Z,-7.32
2018-12-24T07:13:06.085Z,-7.31
2018-12-24T07:15:32.014Z,-7.28
2018-12-24T07:17:58.172Z,-7.28
2018-12-24T07:20:24.199Z,-7.28
2018-12-24T07:22:50.121Z,-7.27
2018-12-24T07:25:16.219Z,-7.27
2018-12-24T07:27:42.260Z,-7.24
2018-12-24T07:30:08.386Z,-7.24
2018-12-24T07:32:34.595Z,-7.22
2018-12-24T07:35:00.482Z,-7.23
2018-12-24T07:37:26.724Z,-7.22
2018-12-24T07:39:52.973Z,-7.20
2018-12-24T07:42:18.887Z,-7.18
2018-12-24T07:44:44.842Z,-7.17
2018-12-24T07:47:10.948Z,-7.16
2018-12-24T07:49:36.888Z,-7.16
2018-12-24T07:52:02.908Z,-7.14
2018-12-24T07:54:29.166Z,-7.14
2018-12-24T07:56:55.118Z,-7.13
2018-12-24T07:59:21.053Z,-7.12
2018-12-24T08:01:47.171Z,-7.11
2018-12-24T08:04:13.197Z,-7.12
2018-12-24T08:06:39.298Z,-7.11
2018-12-24T08:09:06.217Z,-7.08
2018-12-24T08:11:32.117Z,-7.08
2018-12-24T08:13:58.041Z,-7.06
2018-12-24T08:16:24.218Z,-7.08
2018-12-24T08:18:50.168Z,-7.12
2018-12-24T08:21:16.093Z,-7.12
2018-12-24T08:23:42.228Z,-7.15
2018-12-24T08:26:08.270Z,-7.17
2018-12-24T08:28:34.174Z,-7.18
2018-12-24T08:31:00.847Z,-7.20
2018-12-24T08:33:26.869Z,-7.19
2018-12-24T08:35:52.878Z,-7.20
2018-12-24T08:38:19.068Z,-7.20
2018-12-24T08:40:45.096Z,-7.20
2018-12-24T08:43:11.128Z,-7.20
2018-12-24T08:45:37.267Z,-7.21
2018-12-24T08:48:03.300Z,-7.20
2018-12-24T08:50:29.202Z,-7.21
2018-12-24T08:52:55.375Z,-7.21
2018-12-24T08:55:21.456Z,-7.20
2018-12-24T08:57:47.416Z,-7.18
2018-12-24T09:00:13.508Z,-7.20
2018-12-24T09:02:39.422Z,-7.17
2018-12-24T09:05:05.546Z,-7.17
2018-12-24T09:07:31.691Z,-7.15
2018-12-24T09:09:57.727Z,-7.14
2018-12-24T09:12:23.644Z,-7.13
2018-12-24T09:14:50.374Z,-7.11
2018-12-24T09:17:16.518Z,-7.12
2018-12-24T09:19:42.546Z,-7.14
2018-12-24T09:22:08.660Z,-7.14
2018-12-24T09:24:34.583Z,-7.51
2018-12-24T09:27:00.520Z,-7.12
2018-12-24T09:29:26.574Z,-7.10
2018-12-24T09:31:52.533Z,-7.08
2018-12-24T09:34:18.679Z,-7.08
2018-12-24T09:36:45.481Z,-7.09
2018-12-24T09:39:11.392Z,-7.08
2018-12-24T09:41:37.328Z,-7.08
2018-12-24T09:44:03.452Z,-7.07
2018-12-24T09:46:29.359Z,-7.08
2018-12-24T09:48:55.377Z,-7.06
2018-12-24T09:51:21.635Z,-7.05
2018-12-24T09:53:47.541Z,-7.04
2018-12-24T09:56:13.478Z,-7.04
2018-12-24T09:58:39.634Z,-7.04
2018-12-24T10:01:05.723Z,-7.04
2018-12-24T10:03:31.590Z,-7.02
2018-12-24T10:05:59.922Z,-7.00
2018-12-24T10:08:25.887Z,-6.95
2018-12-24T10:10:51.792Z,-6.95
2018-12-24T10:13:17.860Z,-6.94
2018-12-24T10:15:44.788Z,-6.94
2018-12-24T10:18:10.844Z,-6.92
2018-12-24T10:20:37.117Z,-6.92
2018-12-24T10:23:03.041Z,-6.92
2018-12-24T10:25:28.965Z,-6.90
2018-12-24T10:27:55.046Z,-6.89
2018-12-24T10:30:20.957Z,-6.87
2018-12-24T10:32:46.890Z,-6.87
2018-12-24T10:35:13.050Z,-6.86
2018-12-24T10:37:38.978Z,-6.83
2018-12-24T10:40:08.712Z,-6.83
2018-12-24T10:42:34.825Z,-6.82
2018-12-24T10:45:00.732Z,-6.82
2018-12-24T10:47:26.790Z,-6.82
2018-12-24T10:49:53.054Z,-6.81
2018-12-24T10:52:18.940Z,-6.82
2018-12-24T10:54:44.869Z,-6.77
2018-12-24T10:57:11.022Z,-6.75
2018-12-24T10:59:37.045Z,-6.72
2018-12-24T11:02:03.066Z,-6.71
2018-12-24T11:04:29.167Z,-6.81
2018-12-24T11:06:55.942Z,-6.81
2018-12-24T11:09:21.915Z,-6.67
2018-12-24T11:11:48.044Z,-6.66
2018-12-24T11:14:14.193Z,-6.63
2018-12-24T11:16:40.238Z,-6.59
2018-12-24T11:19:06.411Z,-6.59
2018-12-24T11:21:32.353Z,-6.58
2018-12-24T11:23:58.262Z,-6.57
2018-12-24T11:26:24.691Z,-6.54
2018-12-24T11:28:50.607Z,-6.52
2018-12-24T11:31:16.520Z,-6.54
2018-12-24T11:33:42.605Z,-6.50
2018-12-24T11:36:08.547Z,-6.47
2018-12-24T11:38:34.851Z,-6.47
2018-12-24T11:41:00.989Z,-6.44
2018-12-24T11:43:26.984Z,-6.46
2018-12-24T11:45:52.906Z,-6.42
2018-12-24T11:48:19.193Z,-6.38
2018-12-24T11:50:45.220Z,-6.41
2018-12-24T11:53:11.174Z,-6.41
2018-12-24T11:55:37.305Z,-6.36
2018-12-24T11:58:03.231Z,-6.35
2018-12-24T12:00:29.225Z,-6.33
2018-12-24T12:02:55.247Z,-6.31
2018-12-24T12:05:21.187Z,-6.29
2018-12-24T12:07:47.106Z,-6.26
2018-12-24T12:10:13.251Z,-6.24
2018-12-24T12:12:39.175Z,-6.22
2018-12-24T12:15:05.321Z,-6.22
2018-12-24T12:17:31.460Z,-6.17
2018-12-24T12:19:57.396Z,-6.13
2018-12-24T12:22:23.420Z,-6.13
2018-12-24T12:24:49.518Z,-6.10
2018-12-24T12:27:15.446Z,-6.09
2018-12-24T12:29:41.502Z,-6.12
2018-12-24T12:32:07.761Z,-6.05
2018-12-24T12:34:34.471Z,-5.99
2018-12-24T12:37:00.496Z,-5.99
2018-12-24T12:39:26.675Z,-5.98
2018-12-24T12:41:52.647Z,-5.95
2018-12-24T12:44:18.550Z,-5.95
2018-12-24T12:46:44.713Z,-5.92
2018-12-24T12:49:10.627Z,-5.92
2018-12-24T12:51:36.533Z,-5.93
2018-12-24T12:54:02.650Z,-5.88
2018-12-24T12:56:28.732Z,-5.87
2018-12-24T12:58:54.681Z,-5.87
2018-12-24T13:01:20.766Z,-5.86
2018-12-24T13:03:46.687Z,-5.84
2018-12-24T13:06:12.605Z,-5.84
2018-12-24T13:08:38.818Z,-5.84
2018-12-24T13:11:04.785Z,-5.84
2018-12-24T13:13:36.721Z,-5.81
2018-12-24T13:15:59.691Z,-5.81
2018-12-24T13:18:25.940Z,-5.81
2018-12-24T13:20:51.882Z,-5.81
2018-12-24T13:23:17.958Z,-5.83
2018-12-24T13:25:44.083Z,-5.77
2018-12-24T13:28:10.011Z,-5.77
2018-12-24T13:30:36.157Z,-5.76
2018-12-24T13:33:02.114Z,-5.77
2018-12-24T13:35:28.158Z,-5.80
2018-12-24T13:37:54.266Z,-5.80
2018-12-24T13:40:20.171Z,-5.77
2018-12-24T13:42:46.090Z,-5.83
2018-12-24T13:45:12.189Z,-5.79
2018-12-24T13:47:38.127Z,-5.76
2018-12-24T13:50:04.389Z,-5.76
2018-12-24T13:52:30.473Z,-5.76
2018-12-24T13:54:57.422Z,-5.79
2018-12-24T13:57:23.407Z,-5.79
2018-12-24T13:59:49.928Z,-5.81
2018-12-24T14:02:16.663Z,-5.85
2018-12-24T14:04:42.635Z,-5.86
2018-12-24T14:07:08.796Z,-5.86
2018-12-24T14:09:34.839Z,-5.89
2018-12-24T14:12:00.965Z,-5.89
2018-12-24T14:14:27.176Z,-5.88
2018-12-24T14:16:53.105Z,-5.88
2018-12-24T14:19:19.063Z,-5.92
2018-12-24T14:21:45.054Z,-5.90
2018-12-24T14:24:10.994Z,-5.90
2018-12-24T14:26:36.917Z,-5.92
2018-12-24T14:29:02.998Z,-5.93
2018-12-24T14:31:28.919Z,-5.96
2018-12-24T14:33:54.819Z,-5.96
2018-12-24T14:36:20.948Z,-5.97
2018-12-24T14:38:46.953Z,-5.99
2018-12-24T14:41:12.917Z,-5.97
2018-12-24T14:43:39.014Z,-5.97
2018-12-24T14:46:04.915Z,-5.97
2018-12-24T14:48:30.845Z,-5.97
2018-12-24T14:50:56.949Z,-5.93
2018-12-24T14:53:22.844Z,-5.93
2018-12-24T14:55:48.783Z,-6.18
2018-12-24T14:58:14.948Z,-5.93
2018-12-24T15:00:40.927Z,-5.96
2018-12-24T15:03:06.837Z,-5.96
2018-12-24T15:05:33.011Z,-5.97
2018-12-24T15:07:58.950Z,-6.01
2018-12-24T15:10:24.872Z,-6.01
2018-12-24T15:12:51.147Z,-5.99
2018-12-24T15:15:17.285Z,-6.00
2018-12-24T15:17:43.337Z,-6.02
2018-12-24T15:20:09.448Z,-6.02
2018-12-24T15:22:35.530Z,-6.03
2018-12-24T15:25:01.759Z,-6.04
2018-12-24T15:27:28.009Z,-6.02
2018-12-24T15:29:53.935Z,-6.05
2018-12-24T15:32:19.829Z,-6.05
2018-12-24T15:34:46.040Z,-6.05
2018-12-24T15:37:11.956Z,-6.05
2018-12-24T15:39:38.092Z,-6.07
2018-12-24T15:42:04.404Z,-6.07
2018-12-24T15:44:30.332Z,-6.09
2018-12-24T15:46:56.267Z,-6.09
2018-12-24T15:49:22.560Z,-6.09
2018-12-24T15:51:48.501Z,-6.10
2018-12-24T15:54:14.419Z,-6.10
2018-12-24T15:56:40.611Z,-6.08
2018-12-24T15:59:06.526Z,-6.13
2018-12-24T16:01:32.420Z,-6.13
2018-12-24T16:03:58.655Z,-6.12
2018-12-24T16:06:24.552Z,-6.13
2018-12-24T16:08:50.556Z,-6.16
2018-12-24T16:11:16.669Z,-6.17
2018-12-24T16:13:42.774Z,-6.17
2018-12-24T16:16:08.708Z,-6.19
2018-12-24T16:18:34.798Z,-6.20
2018-12-24T16:21:00.864Z,-6.22
2018-12-24T16:23:26.802Z,-6.22
2018-12-24T16:25:52.968Z,-6.26
2018-12-24T16:28:18.876Z,-6.23
2018-12-24T16:30:44.801Z,-6.23
2018-12-24T16:33:10.945Z,-6.22
2018-12-24T16:35:37.070Z,-6.21
2018-12-24T16:38:02.964Z,-6.21
2018-12-24T16:40:29.026Z,-6.21
2018-12-24T16:42:54.956Z,-6.22
2018-12-24T16:45:20.837Z,-6.22
2018-12-24T16:47:47.011Z,-6.22
2018-12-24T16:50:12.913Z,-6.29
2018-12-24T16:52:38.936Z,-6.29
2018-12-24T16:55:05.211Z,-6.30
2018-12-24T16:57:31.250Z,-6.30
2018-12-24T16:59:57.257Z,-6.32
2018-12-24T17:02:23.352Z,-6.41
2018-12-24T17:04:49.278Z,-6.49
2018-12-24T17:07:15.211Z,-6.49
2018-12-24T17:09:41.312Z,-6.48
2018-12-24T17:12:07.249Z,-6.47
2018-12-24T17:14:33.161Z,-6.48
2018-12-24T17:17:07.598Z,-6.46
2018-12-24T17:19:27.088Z,-6.48
2018-12-24T17:21:52.990Z,-6.48
2018-12-24T17:24:19.157Z,-6.45
2018-12-24T17:26:45.044Z,-6.45
2018-12-24T17:29:10.995Z,-6.49
2018-12-24T17:31:37.224Z,-6.45
2018-12-24T17:34:03.142Z,-6.49
2018-12-24T17:36:29.204Z,-6.49
2018-12-24T17:38:55.282Z,-6.50
2018-12-24T17:41:21.226Z,-6.50
2018-12-24T17:43:47.124Z,-6.52
2018-12-24T17:46:13.229Z,-6.49
2018-12-24T17:48:39.161Z,-6.50
2018-12-24T17:51:05.084Z,-6.50
2018-12-24T17:53:31.148Z,-6.51
2018-12-24T17:55:57.374Z,-6.52
2018-12-24T17:58:23.286Z,-6.58
2018-12-24T18:00:49.540Z,-6.58
2018-12-24T18:03:15.478Z,-6.59
2018-12-24T18:05:41.382Z,-6.62
2018-12-24T18:08:07.668Z,-6.62
2018-12-24T18:10:33.672Z,-6.63
2018-12-24T18:12:59.614Z,-6.63
2018-12-24T18:15:25.789Z,-6.65
2018-12-24T18:17:51.707Z,-6.65
2018-12-24T18:20:17.741Z,-6.68
2018-12-24T18:22:43.857Z,-6.68
2018-12-24T18:25:09.758Z,-6.69
2018-12-24T18:27:35.703Z,-6.70
2018-12-24T18:30:02.058Z,-6.70
2018-12-24T18:32:27.961Z,-6.72
2018-12-24T18:34:53.896Z,-6.72
2018-12-24T18:37:19.962Z,-6.69
2018-12-24T18:39:47.132Z,-6.67
2018-12-24T18:42:13.143Z,-6.65
2018-12-24T18:44:39.270Z,-6.65
2018-12-24T18:47:05.161Z,-6.67
2018-12-24T18:49:31.106Z,-6.69
2018-12-24T18:51:57.081Z,-6.68
2018-12-24T18:54:23.139Z,-6.68
2018-12-24T18:56:49.056Z,-6.66
2018-12-24T18:59:15.257Z,-6.64
2018-12-24T19:01:41.186Z,-6.64
2018-12-24T19:04:07.131Z,-6.64
2018-12-24T19:06:33.217Z,-6.63
2018-12-24T19:08:59.354Z,-6.62
2018-12-24T19:11:25.270Z,-6.61
2018-12-24T19:13:51.449Z,-6.61
2018-12-24T19:16:17.481Z,-6.60
2018-12-24T19:18:43.405Z,-6.63
2018-12-24T19:21:09.582Z,-6.63
2018-12-24T19:23:35.613Z,-6.60
2018-12-24T19:26:01.730Z,-6.60
2018-12-24T19:28:27.825Z,-6.56
2018-12-24T19:30:53.824Z,-6.55
2018-12-24T19:33:19.767Z,-6.83
2018-12-24T19:35:45.868Z,-6.53
2018-12-24T19:38:11.901Z,-6.51
2018-12-24T19:40:37.919Z,-6.50
2018-12-24T19:43:04.048Z,-6.47
2018-12-24T19:45:30.070Z,-6.47
2018-12-24T19:47:56.112Z,-6.43
2018-12-24T19:50:22.213Z,-6.43
2018-12-24T19:52:48.151Z,-6.41
2018-12-24T19:55:14.144Z,-6.41
2018-12-24T19:57:40.307Z,-6.38
2018-12-24T20:00:07.354Z,-6.37
2018-12-24T20:02:33.391Z,-6.36
2018-12-24T20:04:59.511Z,-6.35
2018-12-24T20:07:25.442Z,-6.32
2018-12-24T20:09:51.363Z,-6.28
2018-12-24T20:12:17.525Z,-6.26
2018-12-24T20:14:43.462Z,-6.23
2018-12-24T20:17:09.503Z,-6.23
2018-12-24T20:19:35.663Z,-6.19
2018-12-24T20:22:01.775Z,-6.19
2018-12-24T20:24:27.714Z,-6.17
2018-12-24T20:26:54.002Z,-6.16
2018-12-24T20:29:20.141Z,-6.15
2018-12-24T20:31:46.058Z,-6.12
2018-12-24T20:34:12.242Z,-6.12
2018-12-24T20:36:38.307Z,-6.11
2018-12-24T20:39:06.525Z,-6.09
2018-12-24T20:41:32.719Z,-6.09
2018-12-24T20:43:58.659Z,-6.06
2018-12-24T20:46:24.548Z,-6.06
2018-12-24T20:48:52.484Z,-6.05
2018-12-24T20:51:18.524Z,-6.06
2018-12-24T20:53:44.540Z,-6.03
2018-12-24T20:56:10.708Z,-6.03
2018-12-24T20:58:36.610Z,-6.00
2018-12-24T21:01:02.763Z,-6.00
2018-12-24T21:03:28.946Z,-5.98
2018-12-24T21:05:54.867Z,-6.01
2018-12-24T21:08:20.807Z,-6.01
2018-12-24T21:10:46.857Z,-5.98
2018-12-24T21:13:12.796Z,-5.95
2018-12-24T21:15:38.738Z,-5.95
2018-12-24T21:18:04.863Z,-5.94
2018-12-24T21:20:30.800Z,-5.92
2018-12-24T21:22:56.717Z,-5.92
2018-12-24T21:25:22.860Z,-5.91
2018-12-24T21:27:48.804Z,-5.91
2018-12-24T21:30:14.832Z,-5.88
2018-12-24T21:32:41.089Z,-5.86
2018-12-24T21:35:08.037Z,-5.85
2018-12-24T21:37:34.259Z,-5.84
2018-12-24T21:40:00.530Z,-5.85
2018-12-24T21:42:26.445Z,-5.79
2018-12-24T21:44:52.453Z,-5.79
2018-12-24T21:47:18.687Z,-5.78
2018-12-24T21:49:45.941Z,-5.75
2018-12-24T21:52:12.084Z,-5.77
2018-12-24T21:54:38.152Z,-5.73
2018-12-24T21:57:05.114Z,-5.70
2018-12-24T21:59:31.028Z,-5.89
2018-12-24T22:01:57.257Z,-5.89
2018-12-24T22:04:23.276Z,-5.68
2018-12-24T22:06:49.194Z,-5.67
2018-12-24T22:09:15.606Z,-5.65
2018-12-24T22:11:41.618Z,-5.65
2018-12-24T22:14:07.615Z,-5.63
2018-12-24T22:16:33.841Z,-5.62
2018-12-24T22:18:59.796Z,-5.60
2018-12-24T22:21:25.812Z,-5.59
2018-12-24T22:23:52.084Z,-5.53
2018-12-24T22:26:18.013Z,-5.53
2018-12-24T22:28:43.914Z,-5.52
2018-12-24T22:31:10.158Z,-5.50
2018-12-24T22:33:36.471Z,-5.49
2018-12-24T22:36:02.597Z,-5.47
2018-12-24T22:38:28.741Z,-5.46
2018-12-24T22:40:54.714Z,-5.43
2018-12-24T22:43:20.806Z,-5.41
2018-12-24T22:45:46.898Z,-5.37
2018-12-24T22:48:12.846Z,-5.37
2018-12-24T22:50:38.746Z,-5.36
2018-12-24T22:53:05.082Z,-5.34
2018-12-24T22:55:30.970Z,-5.32
2018-12-24T22:57:57.021Z,-5.29
2018-12-24T23:00:25.191Z,-5.26
2018-12-24T23:02:51.091Z,-5.25
2018-12-24T23:05:17.044Z,-5.22
2018-12-24T23:07:43.121Z,-5.19
2018-12-24T23:10:09.145Z,-5.17
2018-12-24T23:12:35.261Z,-5.15
2018-12-24T23:15:01.329Z,-5.13
2018-12-24T23:17:27.366Z,-5.08
2018-12-24T23:19:53.254Z,-5.08
2018-12-24T23:22:19.294Z,-5.05
2018-12-24T23:24:45.503Z,-5.03
2018-12-24T23:27:11.423Z,-5.01
2018-12-24T23:29:37.582Z,-4.99
2018-12-24T23:32:03.502Z,-4.97
2018-12-24T23:34:29.431Z,-4.95
2018-12-24T23:36:55.569Z,-4.93
2018-12-24T23:39:21.593Z,-4.90
2018-12-24T23:41:47.616Z,-4.89
2018-12-24T23:44:13.847Z,-4.87
2018-12-24T23:46:39.919Z,-4.85
2018-12-24T23:49:05.935Z,-4.85
2018-12-24T23:51:31.941Z,-4.79
2018-12-24T23:53:57.862Z,-4.79
2018-12-24T23:56:23.872Z,-4.75
2018-12-24T23:58:50.169Z,-4.74
